Flight Track Log - Related Links

Times and Time Zones

All times are in EDT time to prevent confusion due to time zone crossing. See the UCA596 flight status page for this flight to view local times or setup timezone preferences in your user account.

Time Position Orientation Groundspeed Altitude Reporting Facility
EDT Latitude Longitude Course Direction KTS MPH feet Rate Location/Type
Tue 12:57:36 PM 38.9667 -77.4333 339° North 119 137 1,800  Level Potomac TRACON
Tue 12:58:36 PM 39.0000 -77.4500 339° North 149 171 3,500 1,482 Climbing Potomac TRACON
Tue 01:00:26 PM 39.0742 -77.4497 360° North 160 184 6,000 1,228 Climbing Washington Center
Tue 01:01:27 PM 39.1239 -77.4697 343° North 165 190 7,000 1,109 Climbing Washington Center
Tue 01:02:25 PM 39.1756 -77.5033 333° Northwest 183 211 8,200 1,322 Climbing Washington Center
Tue 01:03:25 PM 39.2269 -77.5342 335° Northwest 195 224 9,600 1,600 Climbing Washington Center
Tue 01:04:25 PM 39.2767 -77.5569 340° North 195 224 11,400 1,587 Climbing Washington Center
Tue 01:05:26 PM 39.3311 -77.5531 North 189 217 12,800 1,230 Climbing Washington Center
Tue 01:06:27 PM 39.3856 -77.5331 16° North 184 212 13,900 992 Climbing Washington Center
Tue 01:07:27 PM 39.4442 -77.5131 15° North 198 228 14,800 1,017 Climbing Washington Center
Tue 01:08:25 PM 39.5089 -77.4958 12° North 219 252 15,900 605 Climbing Washington Center
Tue 01:09:26 PM 39.5761 -77.4761 13° North 231 266 16,000 99 Climbing Washington Center
Tue 01:10:26 PM 39.6472 -77.4536 14° North 243 280 16,100 281 Climbing Washington Center
Tue 01:11:34 PM 39.7411 -77.4453 North 261 300 16,600 375 Climbing New York Center
Tue 01:12:34 PM 39.8100 -77.4086 22° Northeast 261 300 16,900 200 Climbing New York Center
Tue 01:13:34 PM 39.8808 -77.3719 22° Northeast 272 313 17,000  Climbing New York Center
Tue 01:14:34 PM 39.9539 -77.3328 22° Northeast 277 319 16,900  Descending New York Center
Tue 01:15:34 PM 40.0258 -77.2744 32° Northeast 284 327 17,000  Climbing New York Center
Tue 01:16:34 PM 40.0956 -77.2211 30° Northeast 292 336 16,900 400 Descending New York Center
Tue 01:17:34 PM 40.1567 -77.1700 33° Northeast 292 336 17,800 1,050 Climbing New York Center
Tue 01:18:34 PM 40.2219 -77.1189 31° Northeast 258 297 19,000 600 Climbing New York Center
Tue 01:19:34 PM 40.2839 -77.0917 19° North 247 284 19,000  Level New York Center
Tue 01:20:34 PM 40.3614 -77.0497 22° Northeast 263 303 19,000  Level New York Center
Tue 01:21:34 PM 40.4275 -77.0203 19° North 268 308 19,000  Level New York Center
Tue 01:22:34 PM 40.5025 -76.9808 22° Northeast 268 308 19,000  Level New York Center
Tue 01:23:34 PM 40.5667 -76.9483 21° North 263 303 19,000  Level New York Center
Tue 01:24:34 PM 40.6436 -76.9114 20° North 258 297 19,000 -200 Level New York Center
Tue 01:25:34 PM 40.7078 -76.8789 21° North 258 297 18,600 -500 Descending New York Center
Tue 01:26:34 PM 40.7911 -76.8397 20° North 268 308 18,000 -550 Descending New York Center
Tue 01:27:34 PM 40.8575 -76.8044 22° Northeast 280 322 17,500 -500 Descending New York Center
Tue 01:28:34 PM 40.9347 -76.7644 21° North 285 328 17,000 -250 Descending New York Center
Tue 01:29:34 PM 41.0072 -76.7297 20° North 285 328 17,000  Level New York Center
Tue 01:30:34 PM 41.0800 -76.6919 21° North 280 322 17,000  Level New York Center
Tue 01:31:34 PM 41.1506 -76.6569 20° North 280 322 17,000  Level New York Center
Tue 01:32:34 PM 41.2275 -76.6167 21° North 280 322 17,000  Level New York Center
Tue 01:33:34 PM 41.2983 -76.5758 23° Northeast 274 315 17,000  Level New York Center
Tue 01:34:34 PM 41.3708 -76.5406 20° North 274 315 17,000  Level New York Center
Tue 01:35:34 PM 41.4347 -76.5100 20° North 279 321 17,000 -100 Level New York Center
Tue 01:36:34 PM 41.5072 -76.4747 20° North 274 315 16,800 -700 Descending New York Center
Tue 01:37:34 PM 41.5864 -76.4314 22° Northeast 279 321 15,600 -1,050 Descending New York Center
Tue 01:38:34 PM 41.6589 -76.3961 20° North 279 321 14,700 -950 Descending New York Center
Tue 01:39:34 PM 41.7294 -76.3603 21° North 279 321 13,700 -950 Descending New York Center
Tue 01:40:34 PM 41.7933 -76.3267 21° North 273 314 12,800 -900 Descending New York Center
Tue 01:41:34 PM 41.8617 -76.2906 21° North 273 314 11,900 -1,350 Descending New York Center
Tue 01:42:34 PM 41.9364 -76.2522 21° North 266 306 10,100 -1,600 Descending New York Center
Tue 01:43:34 PM 41.9961 -76.2208 21° North 247 284 8,700 -1,500 Descending New York Center
Tue 01:44:34 PM 42.0558 -76.1922 20° North 230 265 7,100 -1,650 Descending New York Center
Tue 01:45:34 PM 42.1111 -76.1633 21° North 223 257 5,400 -1,700 Descending New York Center
Tue 01:46:34 PM 42.1450 -76.1072 51° Northeast 188 216 3,700 -1,100 Descending New York Center
Tue 01:47:34 PM 42.1436 -76.0400 92° East 162 186 3,200 -400 Descending New York Center
Tue 01:48:34 PM 42.1356 -75.9892 102° East 150 173 2,900 -400 Descending New York Center
Tue 01:49:34 PM 42.1600 -75.9519 48° Northeast 130 150 2,400 -400 Descending New York Center
Tue 01:50:34 PM 42.1814 -75.9394 23° Northeast 102 117 2,100 3,300 Descending New York Center
Tue 01:51:34 PM 42.2033 -75.9133 41° Northeast 102 117 9,000 3,450 Climbing New York Center
Tue 01:52:34 PM 42.2253 -75.8869 42° Northeast 102 117 9,000  Level New York Center
Tue 01:54:00 PM 42.2086 -75.9797 256° West  Level Estimated
Tue 02:01:00 PM 42.2086 -75.9797 200° South  Level Estimated

Login

Don't have an account? Register now (free) for customized features, flight alerts, and more!